Time;durP1;ratioP1;P1;durP2;ratioP2;P2;SDS_P1;SDS_P2;PMS_P1;PMS_P2;Temp;Humidity;BMP_temperature;BMP_pressure;BME280_temperature;BME280_humidity;BME280_pressure;Samples;Min_cycle;Max_cycle;Signal;HPM_P1;HPM_P2
2023/04/08 00:01:19;;;;;;;7.03;5.33;;;6.60;76.50;;;;;;5048595;28;20180;-76
2023/04/08 00:03:45;;;;;;;8.43;6.87;;;6.60;76.70;;;;;;5051295;28;20656;-76
2023/04/08 00:06:11;;;;;;;10.13;7.20;;;6.60;76.70;;;;;;5048218;28;20725;-76
2023/04/08 00:08:36;;;;;;;10.50;5.97;;;6.60;76.80;;;;;;5052243;28;20228;-75
2023/04/08 00:11:02;;;;;;;10.53;6.47;;;6.50;76.70;;;;;;5050866;28;20616;-76
2023/04/08 00:13:28;;;;;;;7.67;6.27;;;6.50;76.80;;;;;;5056432;28;20175;-77
2023/04/08 00:15:53;;;;;;;8.93;6.67;;;6.50;76.80;;;;;;5052717;28;20576;-76
2023/04/08 00:18:19;;;;;;;9.03;6.43;;;6.50;76.90;;;;;;5055741;28;20205;-76
2023/04/08 00:20:45;;;;;;;8.77;6.00;;;6.50;77.00;;;;;;5059635;28;20275;-76
2023/04/08 00:23:11;;;;;;;7.73;6.33;;;6.50;77.10;;;;;;5056126;28;20232;-76
2023/04/08 00:25:36;;;;;;;6.47;5.80;;;6.50;77.10;;;;;;5059846;28;20187;-75
2023/04/08 00:28:02;;;;;;;10.60;7.07;;;6.50;77.10;;;;;;5060250;28;20183;-76
2023/04/08 00:30:28;;;;;;;10.73;6.73;;;6.50;77.20;;;;;;5059443;28;20214;-76
2023/04/08 00:32:54;;;;;;;10.07;7.40;;;6.40;77.50;;;;;;5058040;28;20191;-76
2023/04/08 00:35:20;;;;;;;16.37;9.53;;;6.30;78.00;;;;;;5053272;28;20744;-76
2023/04/08 00:37:46;;;;;;;14.63;8.33;;;6.30;78.00;;;;;;5053071;28;20194;-76
2023/04/08 00:40:12;;;;;;;15.30;9.30;;;6.20;78.30;;;;;;5049993;28;20532;-76
2023/04/08 00:42:38;;;;;;;15.57;9.07;;;6.20;78.30;;;;;;5055305;28;20275;-76
2023/04/08 00:45:05;;;;;;;12.30;8.63;;;6.30;78.20;;;;;;5049296;28;20199;-76
2023/04/08 00:47:31;;;;;;;13.03;8.70;;;6.20;78.30;;;;;;5052711;28;20179;-76
2023/04/08 00:49:56;;;;;;;9.97;7.13;;;6.20;78.30;;;;;;5054386;28;20207;-76
2023/04/08 00:52:22;;;;;;;13.53;8.83;;;6.30;78.40;;;;;;5054737;28;20180;-78
2023/04/08 00:54:48;;;;;;;13.00;7.93;;;6.30;78.50;;;;;;5055936;28;20226;-76
2023/04/08 00:57:13;;;;;;;16.17;8.33;;;6.30;78.40;;;;;;5054293;28;20180;-76
2023/04/08 00:59:40;;;;;;;9.00;7.00;;;6.30;78.40;;;;;;5049521;28;20192;-76
2023/04/08 01:02:34;;;;;;;9.03;6.93;;;6.30;78.60;;;;;;5053288;28;20171;-76
2023/04/08 01:05:05;;;;;;;7.20;5.70;;;6.30;78.60;;;;;;5052060;28;20195;-76
2023/04/08 01:07:35;;;;;;;8.70;6.63;;;6.30;78.70;;;;;;5051297;28;20195;-77
2023/04/08 01:10:14;;;;;;;7.87;6.30;;;6.30;79.00;;;;;;5053600;28;20214;-77
2023/04/08 01:12:43;;;;;;;10.60;6.83;;;6.40;78.90;;;;;;5056031;28;20977;-76
2023/04/08 01:15:11;;;;;;;8.80;7.20;;;6.30;79.10;;;;;;5059361;28;20289;-77
2023/04/08 01:17:39;;;;;;;11.90;6.53;;;6.30;79.30;;;;;;5045963;28;20186;-76
2023/04/08 01:20:07;;;;;;;10.27;7.17;;;6.30;79.30;;;;;;5053891;28;20192;-77
2023/04/08 01:22:59;;;;;;;10.83;6.57;;;6.30;79.40;;;;;;5049005;28;21992;-76
2023/04/08 01:25:31;;;;;;;6.97;5.37;;;6.30;79.20;;;;;;4985924;28;20280;-77
2023/04/08 01:28:02;;;;;;;4.80;4.40;;;6.20;78.90;;;;;;4988536;28;20199;-76
2023/04/08 01:30:29;;;;;;;4.77;4.23;;;6.10;79.30;;;;;;4987961;28;20276;-76
2023/04/08 01:32:56;;;;;;;4.30;3.63;;;5.90;79.80;;;;;;4984869;28;20232;-75
2023/04/08 01:35:22;;;;;;;6.47;4.43;;;5.80;80.00;;;;;;4987306;28;20205;-76
2023/04/08 01:37:50;;;;;;;7.03;4.07;;;5.80;79.90;;;;;;4989991;28;20273;-76
2023/04/08 01:40:18;;;;;;;6.07;4.57;;;5.60;79.90;;;;;;4989698;28;20205;-77
2023/04/08 01:42:47;;;;;;;5.47;4.00;;;5.60;80.00;;;;;;5005591;28;20205;-76
2023/04/08 01:45:15;;;;;;;4.67;4.23;;;5.50;80.50;;;;;;5008283;28;20224;-75
2023/04/08 01:47:42;;;;;;;4.97;4.50;;;5.50;80.60;;;;;;5006449;28;20197;-76
2023/04/08 01:50:08;;;;;;;5.93;4.60;;;5.40;80.70;;;;;;4990174;28;20225;-76
2023/04/08 01:52:36;;;;;;;5.10;4.67;;;5.40;80.90;;;;;;5006201;28;20196;-75
2023/04/08 01:55:02;;;;;;;5.40;4.10;;;5.30;81.20;;;;;;5007694;28;20706;-75
2023/04/08 01:57:31;;;;;;;5.70;3.90;;;5.40;80.90;;;;;;5005212;28;20188;-76
2023/04/08 02:00:03;;;;;;;4.70;3.70;;;5.50;80.60;;;;;;5006380;28;20271;-75
2023/04/08 02:02:30;;;;;;;5.37;4.60;;;5.60;80.90;;;;;;5033210;28;20192;-76
2023/04/08 02:04:57;;;;;;;4.57;3.73;;;5.70;80.30;;;;;;5051065;28;20176;-75
2023/04/08 02:07:23;;;;;;;9.50;4.23;;;5.80;80.10;;;;;;5053844;28;20208;-76
2023/04/08 02:09:50;;;;;;;5.90;3.70;;;5.80;79.90;;;;;;5051692;28;20246;-75
2023/04/08 02:12:16;;;;;;;4.67;4.27;;;5.80;79.80;;;;;;5061457;28;20183;-75
2023/04/08 02:14:42;;;;;;;4.60;4.23;;;5.90;79.70;;;;;;5052047;28;20258;-75
2023/04/08 02:17:11;;;;;;;4.43;3.93;;;5.90;79.80;;;;;;5054782;28;20270;-75
2023/04/08 02:20:08;;;;;;;4.90;3.90;;;6.00;79.60;;;;;;5057439;28;20270;-76
2023/04/08 02:23:02;;;;;;;3.80;3.43;;;6.00;79.50;;;;;;5057330;28;20203;-77
2023/04/08 02:25:29;;;;;;;5.47;4.13;;;6.00;79.50;;;;;;5051412;28;20180;-77
2023/04/08 02:27:55;;;;;;;7.47;4.53;;;6.00;79.80;;;;;;5057575;28;20183;-75
2023/04/08 02:30:23;;;;;;;6.20;4.37;;;6.10;79.90;;;;;;5059927;28;20207;-77
2023/04/08 02:32:50;;;;;;;4.30;3.93;;;6.10;79.80;;;;;;5058545;28;20206;-76
2023/04/08 02:35:17;;;;;;;4.50;4.07;;;6.10;79.90;;;;;;5057050;28;20660;-77
2023/04/08 02:37:46;;;;;;;5.60;4.53;;;6.20;79.60;;;;;;5057818;28;20274;-76
2023/04/08 02:40:26;;;;;;;6.57;4.97;;;6.20;79.50;;;;;;5055482;28;20187;-76
2023/04/08 02:42:52;;;;;;;4.40;4.00;;;6.20;79.60;;;;;;5057859;28;20485;-76
2023/04/08 02:45:18;;;;;;;6.63;4.27;;;6.20;79.60;;;;;;5055572;28;20279;-76
2023/04/08 02:47:43;;;;;;;5.23;4.10;;;6.20;79.30;;;;;;5061060;28;20243;-76
2023/04/08 02:50:09;;;;;;;6.23;4.77;;;6.30;79.00;;;;;;5052345;28;20277;-76
2023/04/08 02:52:35;;;;;;;4.60;4.17;;;6.30;78.50;;;;;;5054089;28;20179;-74
2023/04/08 02:55:01;;;;;;;4.50;4.10;;;6.30;78.20;;;;;;5052265;28;20534;-76
2023/04/08 02:57:26;;;;;;;5.93;5.10;;;6.30;78.20;;;;;;5054894;28;20175;-75
2023/04/08 02:59:52;;;;;;;5.67;5.13;;;6.30;78.50;;;;;;5054421;28;20207;-75
2023/04/08 03:02:18;;;;;;;6.40;5.20;;;6.30;78.80;;;;;;5052068;28;20728;-73
2023/04/08 03:04:43;;;;;;;9.77;5.23;;;6.30;79.50;;;;;;5051821;28;20570;-77
2023/04/08 03:07:09;;;;;;;6.67;5.67;;;6.30;79.10;;;;;;5053271;28;20690;-75
2023/04/08 03:09:35;;;;;;;5.87;5.37;;;6.30;78.80;;;;;;5051935;28;20604;-75
2023/04/08 03:12:01;;;;;;;7.17;4.77;;;6.30;79.00;;;;;;5052963;28;20191;-75
2023/04/08 03:14:26;;;;;;;6.07;5.27;;;6.30;79.30;;;;;;5051510;28;20249;-75
2023/04/08 03:16:52;;;;;;;7.93;6.00;;;6.30;79.30;;;;;;5051030;28;20179;-74
2023/04/08 03:19:17;;;;;;;8.63;6.13;;;6.30;79.50;;;;;;5051356;28;20218;-75
2023/04/08 03:21:43;;;;;;;6.23;4.90;;;6.20;79.70;;;;;;5054091;28;20183;-76
2023/04/08 03:24:09;;;;;;;6.57;5.37;;;6.20;80.00;;;;;;5055397;28;20183;-75
2023/04/08 03:26:34;;;;;;;7.77;5.80;;;6.20;80.10;;;;;;5060644;28;20187;-76
2023/04/08 03:29:00;;;;;;;9.87;5.53;;;6.20;80.00;;;;;;5059345;28;20250;-77
2023/04/08 03:31:26;;;;;;;9.17;6.07;;;6.20;80.10;;;;;;5059998;28;20183;-76
2023/04/08 03:33:52;;;;;;;11.37;6.30;;;6.20;80.00;;;;;;5061397;28;20552;-77
2023/04/08 03:36:17;;;;;;;8.63;5.67;;;6.20;79.90;;;;;;5057715;28;20195;-76
2023/04/08 03:38:43;;;;;;;13.20;6.87;;;6.20;79.80;;;;;;5052120;28;20194;-75
2023/04/08 03:41:09;;;;;;;11.20;6.00;;;6.20;79.80;;;;;;5056678;28;20903;-77
2023/04/08 03:43:35;;;;;;;6.80;5.43;;;6.20;79.90;;;;;;5048842;28;20676;-77
2023/04/08 03:46:00;;;;;;;7.30;5.17;;;6.20;80.20;;;;;;5049566;28;20199;-78
2023/04/08 03:48:27;;;;;;;6.50;5.93;;;6.20;80.30;;;;;;5049197;28;20270;-76
2023/04/08 03:50:53;;;;;;;7.83;6.27;;;6.20;80.40;;;;;;5058080;28;20227;-76
2023/04/08 03:53:19;;;;;;;10.63;5.53;;;6.20;80.40;;;;;;5056292;28;20179;-76
2023/04/08 03:55:47;;;;;;;7.47;5.97;;;6.20;80.50;;;;;;5056790;28;20188;-76
2023/04/08 03:58:13;;;;;;;9.50;6.80;;;6.20;80.40;;;;;;5051804;28;20180;-76
2023/04/08 04:00:38;;;;;;;10.87;5.97;;;6.20;80.40;;;;;;5057133;28;20186;-76
2023/04/08 04:03:04;;;;;;;8.03;6.40;;;6.20;80.50;;;;;;5051693;28;20601;-76
2023/04/08 04:05:30;;;;;;;10.70;6.30;;;6.10;80.60;;;;;;5053650;28;20232;-76
2023/04/08 04:07:57;;;;;;;7.93;5.27;;;6.10;80.70;;;;;;5049597;28;20250;-77
2023/04/08 04:10:23;;;;;;;7.37;5.90;;;6.10;80.80;;;;;;5047955;28;20638;-76
2023/04/08 04:12:49;;;;;;;6.63;5.63;;;6.10;80.70;;;;;;5049644;28;20184;-76
2023/04/08 04:15:15;;;;;;;8.57;6.73;;;6.10;80.80;;;;;;5050681;28;20703;-76
2023/04/08 04:17:40;;;;;;;5.33;4.77;;;6.10;80.90;;;;;;5054378;28;20187;-76
2023/04/08 04:20:07;;;;;;;9.03;6.30;;;6.10;80.90;;;;;;5050692;28;20246;-76
2023/04/08 04:22:32;;;;;;;8.90;5.90;;;6.10;80.90;;;;;;5040891;28;20241;-76
2023/04/08 04:24:58;;;;;;;5.83;5.23;;;6.20;81.00;;;;;;5053914;28;20174;-76
2023/04/08 04:27:23;;;;;;;7.67;5.43;;;6.10;81.00;;;;;;5052948;28;20635;-77
2023/04/08 04:29:49;;;;;;;7.50;5.60;;;6.20;81.10;;;;;;5053877;28;20215;-76
2023/04/08 04:32:15;;;;;;;9.70;5.50;;;6.20;81.20;;;;;;5048850;28;20314;-77
2023/04/08 04:34:40;;;;;;;7.57;6.20;;;6.20;81.20;;;;;;5056967;28;20183;-77
2023/04/08 04:37:06;;;;;;;7.97;6.20;;;6.20;81.50;;;;;;5056861;28;20188;-78
2023/04/08 04:39:32;;;;;;;10.50;6.63;;;6.20;81.50;;;;;;5054754;28;20298;-76
2023/04/08 04:41:58;;;;;;;11.10;6.53;;;6.20;81.80;;;;;;5051577;28;20191;-77
2023/04/08 04:44:24;;;;;;;7.23;6.13;;;6.20;81.70;;;;;;5049439;28;20885;-77
2023/04/08 04:46:50;;;;;;;9.37;5.40;;;6.20;81.70;;;;;;5058188;28;20172;-76
2023/04/08 04:49:15;;;;;;;12.37;6.00;;;6.20;81.80;;;;;;5059929;28;20201;-77
2023/04/08 04:51:41;;;;;;;7.83;5.40;;;6.30;81.70;;;;;;5049173;28;20187;-76
2023/04/08 04:54:07;;;;;;;8.93;6.73;;;6.30;81.60;;;;;;5054738;28;20179;-76
2023/04/08 04:56:32;;;;;;;7.87;6.00;;;6.30;81.50;;;;;;5050680;28;20167;-76
2023/04/08 04:58:58;;;;;;;8.80;6.20;;;6.30;81.50;;;;;;5052733;28;20263;-76
2023/04/08 05:01:23;;;;;;;10.73;6.40;;;6.40;81.40;;;;;;5053367;28;20184;-76
2023/04/08 05:03:49;;;;;;;9.13;5.80;;;6.40;81.00;;;;;;5056308;28;20186;-76
2023/04/08 05:06:15;;;;;;;7.93;5.97;;;6.40;80.70;;;;;;5056170;28;20179;-75
2023/04/08 05:08:41;;;;;;;9.17;5.73;;;6.40;80.60;;;;;;5050675;28;20180;-76
2023/04/08 05:11:10;;;;;;;6.20;5.53;;;6.40;80.40;;;;;;5054714;28;20290;-76
2023/04/08 05:13:35;;;;;;;9.07;6.00;;;6.50;80.10;;;;;;5047817;28;20233;-76
2023/04/08 05:16:01;;;;;;;9.90;5.93;;;6.50;80.10;;;;;;5056335;28;20617;-76
2023/04/08 05:18:26;;;;;;;8.47;5.80;;;6.50;80.40;;;;;;5052706;28;20571;-76
2023/04/08 05:20:52;;;;;;;7.80;5.00;;;6.60;80.60;;;;;;5055052;28;21493;-78
2023/04/08 05:23:18;;;;;;;8.67;5.80;;;6.70;80.60;;;;;;5056317;28;20176;-78
2023/04/08 05:25:43;;;;;;;5.87;5.03;;;6.80;80.50;;;;;;5049634;28;20176;-80
2023/04/08 05:28:09;;;;;;;9.40;5.30;;;6.80;80.30;;;;;;5057820;28;21117;-77
2023/04/08 05:30:35;;;;;;;9.10;5.43;;;6.90;79.90;;;;;;5053472;28;20719;-78
2023/04/08 05:33:00;;;;;;;6.73;5.30;;;6.90;79.50;;;;;;5049216;28;20180;-76
2023/04/08 05:35:27;;;;;;;9.10;5.30;;;7.00;78.80;;;;;;5050731;28;20179;-77
2023/04/08 05:37:53;;;;;;;12.03;6.27;;;7.10;78.50;;;;;;5056305;28;20184;-77
2023/04/08 05:40:19;;;;;;;7.00;5.23;;;7.10;78.20;;;;;;5047330;28;20572;-76
2023/04/08 05:42:45;;;;;;;7.37;5.97;;;7.10;78.20;;;;;;5054714;28;20183;-77
2023/04/08 05:45:10;;;;;;;8.57;5.57;;;7.00;77.80;;;;;;5050981;28;21876;-77
2023/04/08 05:47:36;;;;;;;6.00;5.33;;;7.10;77.80;;;;;;5053525;28;20175;-77
2023/04/08 05:50:02;;;;;;;7.13;5.63;;;7.20;77.50;;;;;;5054944;28;20352;-77
2023/04/08 05:52:28;;;;;;;8.53;5.63;;;7.20;77.10;;;;;;5056713;28;20617;-77
2023/04/08 05:54:53;;;;;;;7.97;5.57;;;7.30;77.10;;;;;;5057812;28;20190;-77
2023/04/08 05:57:19;;;;;;;6.03;5.00;;;7.40;76.90;;;;;;5055521;28;20180;-77
2023/04/08 05:59:45;;;;;;;6.10;5.23;;;7.40;76.90;;;;;;5083043;28;20187;-77
2023/04/08 06:02:10;;;;;;;6.73;5.50;;;7.40;77.00;;;;;;5053282;28;20184;-76
2023/04/08 06:04:36;;;;;;;10.97;6.17;;;7.50;76.80;;;;;;5054785;28;20629;-77
2023/04/08 06:07:03;;;;;;;7.40;5.50;;;7.50;76.80;;;;;;5054179;28;20182;-77
2023/04/08 06:09:28;;;;;;;7.40;5.80;;;7.60;76.20;;;;;;5056789;28;20215;-76
2023/04/08 06:11:56;;;;;;;9.17;5.40;;;7.70;76.10;;;;;;5053063;28;20282;-76
2023/04/08 06:14:21;;;;;;;8.13;5.00;;;7.80;75.90;;;;;;5059025;28;20188;-78
2023/04/08 06:16:47;;;;;;;6.17;5.33;;;7.90;75.90;;;;;;5052133;28;20186;-77
2023/04/08 06:19:13;;;;;;;5.60;4.97;;;8.00;75.90;;;;;;5053990;28;20208;-76
2023/04/08 06:21:38;;;;;;;7.30;5.80;;;8.10;75.50;;;;;;5057022;28;20634;-76
2023/04/08 06:24:04;;;;;;;8.00;5.53;;;8.20;75.20;;;;;;5056011;28;20203;-76
2023/04/08 06:26:30;;;;;;;5.13;4.67;;;8.30;75.00;;;;;;5049175;28;20191;-76
2023/04/08 06:28:56;;;;;;;7.33;5.63;;;8.50;74.90;;;;;;5055057;28;20212;-76
2023/04/08 06:31:21;;;;;;;8.33;4.80;;;8.60;74.70;;;;;;5052882;28;20234;-76
2023/04/08 06:33:47;;;;;;;5.67;4.97;;;8.80;74.10;;;;;;5053325;28;21409;-77
2023/04/08 06:36:13;;;;;;;7.13;5.10;;;8.90;73.50;;;;;;5055347;28;20187;-77
2023/04/08 06:38:38;;;;;;;7.70;5.17;;;9.00;73.00;;;;;;5060617;28;20685;-76
2023/04/08 06:41:05;;;;;;;7.80;5.07;;;9.10;73.10;;;;;;5050477;28;20223;-77
2023/04/08 06:43:31;;;;;;;6.00;4.37;;;9.10;73.30;;;;;;5052905;28;20206;-76
2023/04/08 06:45:57;;;;;;;7.10;5.23;;;9.30;73.30;;;;;;5049888;28;20185;-77
2023/04/08 06:48:29;;;;;;;7.00;5.73;;;9.30;73.00;;;;;;5058561;28;20249;-77
2023/04/08 06:50:59;;;;;;;6.37;5.23;;;9.40;72.90;;;;;;5048996;28;20234;-76
2023/04/08 06:53:28;;;;;;;5.00;4.37;;;9.40;72.90;;;;;;5053283;28;20195;-77
2023/04/08 06:55:54;;;;;;;7.63;4.63;;;9.40;72.60;;;;;;5048948;28;20579;-76
2023/04/08 06:58:19;;;;;;;4.13;3.73;;;9.40;72.80;;;;;;5052076;28;20183;-76
2023/04/08 07:00:46;;;;;;;7.03;4.67;;;9.40;73.00;;;;;;5050854;28;20179;-77
2023/04/08 07:03:12;;;;;;;5.30;4.85;;;9.50;72.80;;;;;;5053510;28;20183;-77
2023/04/08 07:05:38;;;;;;;5.57;4.53;;;9.50;72.70;;;;;;5052138;28;20198;-77
2023/04/08 07:08:05;;;;;;;5.72;4.60;;;9.50;73.00;;;;;;5053863;28;20625;-77
2023/04/08 07:10:31;;;;;;;4.78;4.28;;;9.50;73.00;;;;;;5051855;28;20210;-76
2023/04/08 07:12:57;;;;;;;4.67;4.20;;;9.50;73.00;;;;;;5054795;28;20234;-77
2023/04/08 07:15:22;;;;;;;5.83;5.30;;;9.60;73.30;;;;;;5056858;28;20728;-76
2023/04/08 07:17:48;;;;;;;6.57;4.93;;;9.60;73.30;;;;;;5052801;28;20274;-76
2023/04/08 07:20:14;;;;;;;5.03;4.57;;;9.60;73.30;;;;;;5051080;28;20183;-78
2023/04/08 07:22:40;;;;;;;4.82;4.38;;;9.70;73.30;;;;;;5049210;28;20290;-78
2023/04/08 07:25:06;;;;;;;5.45;4.95;;;9.70;73.10;;;;;;5053602;28;20692;-79
2023/04/08 07:27:35;;;;;;;5.40;4.72;;;9.80;73.00;;;;;;5054949;28;20211;-79
2023/04/08 07:30:01;;;;;;;7.18;4.85;;;9.90;72.90;;;;;;5058310;28;20614;-79
2023/04/08 07:32:27;;;;;;;6.55;4.75;;;10.00;73.00;;;;;;5055617;28;20185;-79
2023/04/08 07:34:53;;;;;;;5.65;5.07;;;10.10;72.70;;;;;;5061666;28;20182;-78
2023/04/08 07:37:19;;;;;;;5.70;4.78;;;10.20;72.30;;;;;;5057040;28;20211;-78
2023/04/08 07:39:44;;;;;;;5.38;4.95;;;10.30;72.00;;;;;;5053513;28;20264;-79
2023/04/08 07:42:10;;;;;;;10.43;6.10;;;10.40;72.00;;;;;;5046767;28;20230;-78
2023/04/08 07:44:37;;;;;;;8.45;4.93;;;10.50;72.10;;;;;;5049986;28;20199;-79
2023/04/08 07:47:03;;;;;;;7.22;5.55;;;10.60;72.30;;;;;;5050076;28;20195;-78
2023/04/08 07:49:28;;;;;;;4.97;4.43;;;10.80;72.10;;;;;;5048674;28;22153;-78
2023/04/08 07:51:54;;;;;;;5.03;4.35;;;10.90;71.30;;;;;;5057810;28;20179;-77
2023/04/08 07:54:20;;;;;;;5.97;4.15;;;11.10;71.20;;;;;;5058975;28;20176;-79
2023/04/08 07:56:46;;;;;;;7.47;4.53;;;11.20;71.00;;;;;;5053046;28;20556;-78
2023/04/08 07:59:11;;;;;;;5.28;4.75;;;11.40;70.50;;;;;;5056558;28;20180;-77
2023/04/08 08:01:37;;;;;;;5.22;4.80;;;11.50;70.70;;;;;;5055033;28;20920;-78
2023/04/08 08:04:03;;;;;;;4.93;4.47;;;11.70;70.20;;;;;;5056071;28;20827;-77
2023/04/08 08:06:32;;;;;;;4.55;4.15;;;11.70;69.70;;;;;;5066939;28;20663;-76
2023/04/08 08:08:58;;;;;;;5.07;4.57;;;11.80;69.60;;;;;;5056401;28;20179;-76
2023/04/08 08:11:25;;;;;;;4.63;4.22;;;11.90;69.20;;;;;;5051586;28;20216;-78
2023/04/08 08:13:51;;;;;;;6.07;4.18;;;12.00;69.10;;;;;;5058115;28;20195;-78
2023/04/08 08:16:17;;;;;;;5.32;4.80;;;12.10;69.30;;;;;;5053535;28;20209;-79
2023/04/08 08:18:42;;;;;;;5.38;4.85;;;12.30;69.30;;;;;;5052312;28;20180;-75
2023/04/08 08:21:08;;;;;;;4.80;4.40;;;12.30;69.10;;;;;;5046386;28;20657;-77
2023/04/08 08:23:34;;;;;;;5.03;4.60;;;12.40;68.90;;;;;;5047807;28;20176;-76
2023/04/08 08:26:08;;;;;;;6.38;4.68;;;12.50;69.10;;;;;;5043270;28;20677;-78
2023/04/08 08:28:34;;;;;;;5.60;5.03;;;12.60;68.60;;;;;;5049755;28;20194;-78
2023/04/08 08:31:01;;;;;;;4.97;4.45;;;12.60;68.10;;;;;;5052488;28;20579;-78
2023/04/08 08:33:26;;;;;;;5.65;5.00;;;12.50;68.10;;;;;;5053629;28;20195;-79
2023/04/08 08:35:52;;;;;;;6.18;5.20;;;12.60;68.30;;;;;;5051535;28;20214;-79
2023/04/08 08:38:18;;;;;;;5.95;5.15;;;12.60;68.20;;;;;;5057323;28;20179;-79
2023/04/08 08:40:44;;;;;;;7.20;5.43;;;12.60;68.30;;;;;;5049017;28;20235;-79
2023/04/08 08:43:10;;;;;;;5.85;5.20;;;12.50;68.20;;;;;;5050281;28;20200;-77
2023/04/08 08:45:40;;;;;;;9.18;5.45;;;12.60;68.30;;;;;;5043563;28;20548;-77
2023/04/08 08:48:10;;;;;;;7.82;5.63;;;12.50;68.50;;;;;;5050298;28;20241;-77
2023/04/08 08:50:35;;;;;;;7.30;5.53;;;12.30;68.90;;;;;;5050417;28;20214;-76
2023/04/08 08:53:02;;;;;;;6.75;5.20;;;12.40;69.00;;;;;;5059521;28;20179;-77
2023/04/08 08:55:33;;;;;;;5.80;5.07;;;12.30;68.80;;;;;;5060801;28;20183;-76
2023/04/08 08:58:02;;;;;;;7.95;5.47;;;12.20;68.60;;;;;;5056608;28;20186;-77
2023/04/08 09:00:38;;;;;;;8.27;5.57;;;12.00;69.10;;;;;;5060108;28;20195;-78
2023/04/08 09:03:18;;;;;;;5.47;4.95;;;12.00;69.70;;;;;;5056568;28;20182;-78
2023/04/08 09:05:55;;;;;;;6.38;5.03;;;12.00;69.90;;;;;;5055636;28;20179;-79
2023/04/08 09:08:30;;;;;;;6.38;5.47;;;12.10;69.30;;;;;;5051877;28;20214;-78
2023/04/08 09:11:20;;;;;;;6.45;5.40;;;12.20;69.10;;;;;;5058186;28;20214;-78
2023/04/08 09:13:46;;;;;;;6.18;5.00;;;12.30;69.30;;;;;;5056168;28;21730;-78
2023/04/08 09:16:16;;;;;;;5.88;5.15;;;12.60;69.10;;;;;;5057171;28;20245;-78
2023/04/08 09:18:43;;;;;;;6.63;5.15;;;12.90;68.80;;;;;;5060329;28;20189;-78
2023/04/08 09:21:10;;;;;;;6.85;5.05;;;13.30;67.90;;;;;;5064750;28;20182;-78
2023/04/08 09:23:51;;;;;;;6.80;5.80;;;13.70;67.20;;;;;;5059763;28;20186;-78
2023/04/08 09:26:18;;;;;;;6.13;5.25;;;14.40;66.90;;;;;;5056211;28;20266;-78
2023/04/08 09:29:14;;;;;;;7.05;5.95;;;15.10;65.00;;;;;;5058148;28;20182;-78
2023/04/08 09:31:40;;;;;;;7.40;5.50;;;15.60;62.70;;;;;;5057200;28;20203;-78
2023/04/08 09:34:15;;;;;;;6.53;5.93;;;16.00;62.40;;;;;;5058379;28;20615;-78
2023/04/08 09:36:41;;;;;;;8.35;5.65;;;16.40;61.30;;;;;;5058136;28;20174;-78
2023/04/08 09:39:07;;;;;;;6.72;5.95;;;16.70;60.30;;;;;;5060541;28;21439;-78
2023/04/08 09:41:34;;;;;;;6.32;5.72;;;17.10;60.10;;;;;;5057738;28;20191;-79
2023/04/08 09:44:11;;;;;;;7.00;5.45;;;17.60;59.10;;;;;;5057323;28;20190;-77
2023/04/08 09:46:49;;;;;;;5.85;5.30;;;18.30;57.50;;;;;;5056455;28;20783;-79
2023/04/08 09:49:39;;;;;;;7.00;5.22;;;19.00;57.00;;;;;;5057100;28;20210;-79
2023/04/08 09:52:14;;;;;;;5.70;5.10;;;19.90;55.20;;;;;;5058049;28;20195;-79
2023/04/08 09:54:46;;;;;;;7.15;5.45;;;20.80;53.30;;;;;;5058704;28;20666;-78
2023/04/08 09:57:21;;;;;;;7.47;6.30;;;21.50;52.90;;;;;;5059967;28;20190;-77
2023/04/08 09:59:57;;;;;;;5.75;5.25;;;21.30;52.40;;;;;;5053252;28;20317;-77
2023/04/08 10:02:31;;;;;;;8.38;6.43;;;21.50;52.80;;;;;;5060460;28;20198;-77
2023/04/08 10:05:02;;;;;;;6.93;5.47;;;21.50;52.00;;;;;;5057097;28;20652;-77
2023/04/08 10:07:28;;;;;;;7.53;6.68;;;22.10;51.80;;;;;;5058276;28;20179;-77
2023/04/08 10:09:54;;;;;;;6.88;6.13;;;22.40;50.90;;;;;;5057937;28;20208;-78
2023/04/08 10:12:20;;;;;;;7.53;5.70;;;21.80;51.00;;;;;;5054191;28;20209;-78
2023/04/08 10:15:24;;;;;;;6.30;5.72;;;21.30;51.70;;;;;;5053165;28;20213;-79
2023/04/08 10:17:51;;;;;;;9.00;6.65;;;21.10;51.80;;;;;;5059814;28;20582;-78
2023/04/08 10:20:35;;;;;;;7.32;6.38;;;20.70;51.90;;;;;;5055143;28;20183;-77
2023/04/08 10:23:04;;;;;;;7.50;6.65;;;20.20;52.90;;;;;;5053780;28;20185;-77
2023/04/08 10:25:31;;;;;;;6.35;5.85;;;19.70;53.90;;;;;;5055743;28;20179;-78
2023/04/08 10:27:58;;;;;;;6.35;5.82;;;19.40;53.60;;;;;;5054938;28;20301;-77
2023/04/08 10:30:26;;;;;;;7.28;6.53;;;19.00;55.20;;;;;;5056010;28;21293;-78
2023/04/08 10:32:59;;;;;;;8.15;6.45;;;18.80;55.00;;;;;;5054447;28;20669;-77
2023/04/08 10:35:35;;;;;;;6.85;5.75;;;17.90;56.10;;;;;;5054858;28;20187;-78
2023/04/08 10:38:01;;;;;;;7.65;6.40;;;17.20;57.90;;;;;;5056467;28;20614;-77
2023/04/08 10:40:27;;;;;;;7.03;6.15;;;16.90;58.30;;;;;;5055086;28;20210;-77
2023/04/08 10:42:56;;;;;;;9.55;6.53;;;16.50;59.30;;;;;;5052591;28;20630;-78
2023/04/08 10:45:22;;;;;;;6.63;5.70;;;16.20;59.80;;;;;;5056244;28;20199;-78
2023/04/08 10:47:47;;;;;;;8.65;5.90;;;16.10;60.20;;;;;;5061661;28;20175;-78
2023/04/08 10:50:15;;;;;;;7.85;6.38;;;15.90;60.60;;;;;;5049432;28;20206;-78
2023/04/08 10:52:51;;;;;;;7.38;5.22;;;15.80;61.70;;;;;;5053709;28;20737;-78
2023/04/08 10:55:26;;;;;;;8.25;6.13;;;16.20;61.70;;;;;;5056886;28;20187;-78
2023/04/08 10:57:52;;;;;;;7.05;5.38;;;16.80;60.40;;;;;;5057338;28;20186;-78
2023/04/08 11:00:32;;;;;;;7.18;5.95;;;17.10;59.30;;;;;;5052627;28;20188;-78
2023/04/08 11:03:02;;;;;;;7.28;5.53;;;17.20;58.70;;;;;;5057651;28;20210;-78
2023/04/08 11:05:28;;;;;;;5.82;5.00;;;17.40;58.40;;;;;;5055968;28;20656;-78
2023/04/08 11:07:54;;;;;;;6.55;5.07;;;17.70;57.80;;;;;;5059851;28;20263;-78
2023/04/08 11:10:20;;;;;;;6.47;5.85;;;17.90;57.80;;;;;;5053961;28;20208;-78
2023/04/08 11:12:46;;;;;;;7.30;5.55;;;18.00;56.50;;;;;;5057777;28;20682;-78
2023/04/08 11:15:13;;;;;;;6.22;5.43;;;17.60;56.70;;;;;;5052774;28;20179;-76
2023/04/08 11:17:39;;;;;;;5.80;5.28;;;16.80;58.70;;;;;;5055594;28;20179;-78
2023/04/08 11:20:07;;;;;;;10.05;5.50;;;16.10;59.30;;;;;;5053641;28;20682;-78
2023/04/08 11:22:33;;;;;;;8.90;5.55;;;15.50;60.50;;;;;;5059801;28;20183;-77
2023/04/08 11:24:59;;;;;;;6.45;5.50;;;15.30;61.40;;;;;;5056399;28;20170;-78
2023/04/08 11:27:25;;;;;;;7.35;6.07;;;15.50;62.10;;;;;;5057456;28;20187;-77
2023/04/08 11:29:55;;;;;;;5.00;4.53;;;16.10;61.90;;;;;;5054185;28;20238;-77
2023/04/08 11:32:22;;;;;;;5.20;4.70;;;17.00;60.20;;;;;;5056753;28;20241;-78
2023/04/08 11:34:48;;;;;;;5.38;4.88;;;17.80;57.70;;;;;;5059969;28;20214;-78
2023/04/08 11:37:14;;;;;;;5.55;4.88;;;18.20;56.70;;;;;;5054497;28;20172;-77
2023/04/08 11:39:44;;;;;;;5.63;4.78;;;18.60;55.20;;;;;;5054268;28;20183;-78
2023/04/08 11:42:29;;;;;;;5.18;4.75;;;18.30;55.40;;;;;;5053297;28;20704;-77
2023/04/08 11:44:55;;;;;;;6.68;5.07;;;18.10;56.20;;;;;;5053366;28;20983;-78
2023/04/08 11:47:21;;;;;;;5.38;4.90;;;17.80;56.50;;;;;;5058595;28;20265;-76
2023/04/08 11:49:47;;;;;;;5.30;4.90;;;17.60;56.50;;;;;;5058191;28;20613;-78
2023/04/08 11:52:13;;;;;;;4.68;4.28;;;17.30;57.50;;;;;;5055250;28;20638;-78
2023/04/08 11:54:42;;;;;;;5.22;4.72;;;17.20;57.70;;;;;;5054480;28;20258;-78
2023/04/08 11:57:11;;;;;;;4.85;4.40;;;17.10;56.30;;;;;;5056775;28;20175;-78
2023/04/08 11:59:37;;;;;;;4.97;4.55;;;16.30;57.30;;;;;;5059285;28;20191;-78
2023/04/08 12:02:03;;;;;;;5.25;4.82;;;16.00;57.50;;;;;;5054077;28;20179;-78
2023/04/08 12:04:29;;;;;;;4.53;4.32;;;15.50;58.70;;;;;;5053936;28;20183;-78
2023/04/08 12:06:55;;;;;;;6.35;4.93;;;15.40;58.90;;;;;;5055704;28;20250;-78
2023/04/08 12:09:21;;;;;;;5.25;4.75;;;15.40;59.50;;;;;;5051649;28;20275;-78
2023/04/08 12:11:47;;;;;;;4.55;3.97;;;15.20;60.70;;;;;;5050403;28;20289;-79
2023/04/08 12:14:12;;;;;;;5.97;4.78;;;15.10;61.30;;;;;;5058017;28;20210;-79
2023/04/08 12:16:38;;;;;;;4.85;4.40;;;15.10;61.20;;;;;;5056779;28;20182;-78
2023/04/08 12:19:04;;;;;;;5.22;4.75;;;14.90;60.70;;;;;;5053980;28;20195;-79
2023/04/08 12:21:31;;;;;;;4.53;4.13;;;14.70;61.30;;;;;;5050346;28;20194;-78
2023/04/08 12:23:56;;;;;;;5.28;4.78;;;14.40;61.50;;;;;;5052059;28;20178;-78
2023/04/08 12:26:23;;;;;;;4.22;3.83;;;14.10;62.30;;;;;;5055984;28;20263;-78
2023/04/08 12:28:48;;;;;;;3.97;3.75;;;13.90;63.20;;;;;;5053445;28;20176;-78
2023/04/08 12:31:14;;;;;;;4.43;4.13;;;13.90;63.30;;;;;;5052176;28;20203;-78
2023/04/08 12:33:40;;;;;;;4.93;3.80;;;13.80;63.40;;;;;;5055986;28;20255;-78
2023/04/08 12:36:05;;;;;;;5.70;3.95;;;13.80;63.40;;;;;;5051822;28;20568;-78
2023/04/08 12:38:32;;;;;;;3.97;3.58;;;13.40;63.70;;;;;;5052430;28;20183;-78
2023/04/08 12:40:58;;;;;;;3.97;3.47;;;13.20;64.00;;;;;;5053028;28;20187;-78
2023/04/08 12:43:24;;;;;;;3.88;3.58;;;13.00;64.90;;;;;;5057303;28;20570;-77
2023/04/08 12:45:50;;;;;;;4.18;3.20;;;12.90;65.20;;;;;;5054044;28;20175;-77
2023/04/08 12:48:16;;;;;;;3.97;3.70;;;12.60;65.60;;;;;;5053068;28;20630;-77
2023/04/08 12:50:42;;;;;;;3.72;3.22;;;12.40;66.20;;;;;;5049386;28;20235;-77
2023/04/08 12:53:07;;;;;;;3.70;3.20;;;12.40;66.00;;;;;;5046355;28;20171;-76
2023/04/08 12:55:33;;;;;;;3.13;2.95;;;12.40;66.40;;;;;;5050562;28;20819;-76